createdAt,value
2023-02-07T00:01:22.701Z,103947.25
2023-02-07T00:03:52.685Z,103943.81
2023-02-07T00:06:22.700Z,103945.69
2023-02-07T00:08:51.101Z,103952.81
2023-02-07T00:11:20.676Z,103948.47
2023-02-07T00:13:51.239Z,103948.50
2023-02-07T00:16:19.981Z,103947.66
2023-02-07T00:18:48.438Z,103946.84
2023-02-07T00:21:19.303Z,103939.84
2023-02-07T00:23:47.756Z,103943.53
2023-02-07T00:26:17.009Z,103945.31
2023-02-07T00:28:45.327Z,103935.59
2023-02-07T00:31:14.956Z,103937.41
2023-02-07T00:33:45.737Z,103938.31
2023-02-07T00:36:15.886Z,103919.75
2023-02-07T00:38:45.740Z,103917.09
2023-02-07T00:41:15.277Z,103914.41
2023-02-07T00:43:43.855Z,103919.66
2023-02-07T00:46:12.730Z,103921.41
2023-02-07T00:48:40.893Z,103915.25
2023-02-07T00:51:09.191Z,103923.19
2023-02-07T00:53:37.770Z,103929.41
2023-02-07T00:56:08.152Z,103933.81
2023-02-07T00:58:36.608Z,103939.16
2023-02-07T01:01:04.792Z,103934.75
2023-02-07T01:03:33.020Z,103926.81
2023-02-07T01:06:01.191Z,103918.81
2023-02-07T01:08:29.317Z,103914.41
2023-02-07T01:10:57.421Z,103915.22
2023-02-07T01:13:26.922Z,103916.91
2023-02-07T01:15:55.019Z,103924.75
2023-02-07T01:18:23.198Z,103912.34
2023-02-07T01:20:51.315Z,103915.84
2023-02-07T01:23:19.912Z,103913.19
2023-02-07T01:25:48.368Z,103909.66
2023-02-07T01:28:16.834Z,103911.41
2023-02-07T01:30:46.484Z,103910.53
2023-02-07T01:33:14.673Z,103908.78
2023-02-07T01:35:46.552Z,103907.97
2023-02-07T01:38:14.800Z,103907.94
2023-02-07T01:40:43.190Z,103915.00
2023-02-07T01:43:16.946Z,103922.09
2023-02-07T01:45:46.540Z,103923.00
2023-02-07T01:48:16.292Z,103915.91
2023-02-07T01:50:47.990Z,103902.63
2023-02-07T01:53:17.385Z,103908.84
2023-02-07T01:55:47.133Z,103907.03
2023-02-07T01:58:15.314Z,103904.38
2023-02-07T02:00:43.567Z,103905.19
2023-02-07T02:03:13.043Z,103906.09
2023-02-07T02:05:42.227Z,103901.59
2023-02-07T02:08:10.969Z,103899.75
2023-02-07T02:11:03.148Z,103889.84
2023-02-07T02:13:38.171Z,103898.66
2023-02-07T02:16:21.950Z,103897.72
2023-02-07T02:19:03.118Z,103904.66
2023-02-07T02:22:07.804Z,103907.31
2023-02-07T02:24:56.144Z,103911.72
2023-02-07T02:27:33.234Z,103902.78
2023-02-07T02:30:27.723Z,103903.59
2023-02-07T02:33:14.022Z,103900.91
2023-02-07T02:35:47.039Z,103894.66
2023-02-07T02:38:19.640Z,103899.00
2023-02-07T02:40:53.183Z,103918.38
2023-02-07T02:43:29.156Z,103912.09
2023-02-07T02:45:59.590Z,103919.09
2023-02-07T02:48:32.944Z,103917.28
2023-02-07T02:51:01.224Z,103918.09
2023-02-07T02:53:29.337Z,103913.59
2023-02-07T02:56:13.908Z,103922.34
2023-02-07T02:59:04.684Z,103925.69
2023-02-07T03:01:40.037Z,103923.78
2023-02-07T03:04:35.610Z,103914.75
2023-02-07T03:07:23.088Z,103917.31
2023-02-07T03:09:59.180Z,103913.66
2023-02-07T03:12:31.747Z,103922.41
2023-02-07T03:15:05.751Z,103917.03
2023-02-07T03:17:38.842Z,103908.03
2023-02-07T03:20:11.603Z,103900.94
2023-02-07T03:22:39.784Z,103894.75
2023-02-07T03:25:09.242Z,103892.13
2023-02-07T03:27:38.117Z,103900.06
2023-02-07T03:30:09.572Z,103893.91
2023-02-07T03:32:39.473Z,103901.00
2023-02-07T03:35:12.368Z,103900.09
2023-02-07T03:37:43.595Z,103893.97
2023-02-07T03:40:12.839Z,103878.97
2023-02-07T03:42:44.629Z,103873.69
2023-02-07T03:45:15.413Z,103880.78
2023-02-07T03:47:43.487Z,103869.41
2023-02-07T03:50:13.233Z,103862.38
2023-02-07T03:52:41.328Z,103865.97
2023-02-07T03:55:10.056Z,103864.22
2023-02-07T03:57:38.657Z,103868.66
2023-02-07T04:00:08.493Z,103863.41
2023-02-07T04:02:36.592Z,103862.56
2023-02-07T04:05:04.902Z,103856.34
2023-02-07T04:07:34.490Z,103866.06
2023-02-07T04:10:02.906Z,103869.59
2023-02-07T04:12:32.959Z,103881.94
2023-02-07T04:15:01.262Z,103871.34
2023-02-07T04:17:31.358Z,103883.66
2023-02-07T04:20:01.653Z,103886.25
2023-02-07T04:22:30.196Z,103880.91
2023-02-07T04:24:59.851Z,103892.38
2023-02-07T04:27:27.954Z,103887.03
2023-02-07T04:29:56.345Z,103882.47
2023-02-07T04:32:24.482Z,103890.31
2023-02-07T04:34:52.573Z,103887.63
2023-02-07T04:37:20.850Z,103891.97
2023-02-07T04:39:48.973Z,103892.81
2023-02-07T04:42:18.601Z,103897.16
2023-02-07T04:44:46.702Z,103894.38
2023-02-07T04:47:15.177Z,103890.69
2023-02-07T04:49:43.283Z,103893.19
2023-02-07T04:52:11.368Z,103883.31
2023-02-07T04:54:39.997Z,103884.06
2023-02-07T04:57:08.124Z,103890.09
2023-02-07T04:59:37.640Z,103882.88
2023-02-07T05:02:05.748Z,103876.59
2023-02-07T05:04:34.020Z,103866.69
2023-02-07T05:07:02.185Z,103878.03
2023-02-07T05:09:30.701Z,103864.72
2023-02-07T05:11:58.811Z,103864.66
2023-02-07T05:14:27.002Z,103863.69
2023-02-07T05:16:56.554Z,103866.25
2023-02-07T05:19:24.708Z,103873.19
2023-02-07T05:21:52.781Z,103866.94
2023-02-07T05:24:20.997Z,103874.78
2023-02-07T05:26:49.079Z,103882.63
2023-02-07T05:29:17.184Z,103878.16
2023-02-07T05:32:03.457Z,103866.56
2023-02-07T05:34:33.898Z,103869.03
2023-02-07T05:37:01.957Z,103877.72
2023-02-07T05:39:30.064Z,103874.03
2023-02-07T05:41:58.132Z,103876.56
2023-02-07T05:44:26.255Z,103872.06
2023-02-07T05:46:54.361Z,103879.94
2023-02-07T05:49:22.492Z,103890.47
2023-02-07T05:51:51.953Z,103893.00
2023-02-07T05:54:20.143Z,103889.38
2023-02-07T05:56:48.279Z,103882.28
2023-02-07T05:59:16.432Z,103884.03
2023-02-07T06:01:44.540Z,103886.56
2023-02-07T06:04:12.655Z,103902.38
2023-02-07T06:06:42.545Z,103904.09
2023-02-07T06:09:13.366Z,103901.53
2023-02-07T06:11:41.494Z,103915.75
2023-02-07T06:14:09.682Z,103918.50
2023-02-07T06:16:37.785Z,103907.88
2023-02-07T06:19:05.987Z,103920.13
2023-02-07T06:21:45.680Z,103915.56
2023-02-07T06:24:16.066Z,103919.06
2023-02-07T06:26:46.633Z,103928.75
2023-02-07T06:29:15.002Z,103933.13
2023-02-07T06:31:43.154Z,103923.41
2023-02-07T06:34:11.289Z,103926.03
2023-02-07T06:36:39.384Z,103932.16
2023-02-07T06:39:09.550Z,103925.91
2023-02-07T06:41:38.985Z,103936.47
2023-02-07T06:44:07.613Z,103932.88
2023-02-07T06:46:35.765Z,103932.88
2023-02-07T06:49:04.142Z,103944.41
2023-02-07T06:51:32.292Z,103939.94
2023-02-07T06:54:03.337Z,103933.72
2023-02-07T06:56:31.461Z,103931.00
2023-02-07T06:59:01.019Z,103930.06
2023-02-07T07:01:29.495Z,103932.75
2023-02-07T07:03:57.679Z,103931.84
2023-02-07T07:06:26.121Z,103929.16
2023-02-07T07:08:54.261Z,103933.53
2023-02-07T07:11:22.347Z,103941.41
2023-02-07T07:13:50.499Z,103937.81
2023-02-07T07:16:20.215Z,103932.53
2023-02-07T07:18:48.382Z,103926.31
2023-02-07T07:21:16.565Z,103939.59
2023-02-07T07:23:44.713Z,103941.34
2023-02-07T07:26:12.791Z,103947.59
2023-02-07T07:28:40.952Z,103945.91
2023-02-07T07:31:09.510Z,103932.75
2023-02-07T07:33:39.083Z,103939.19
2023-02-07T07:38:56.184Z,103931.56
2023-02-07T07:41:24.769Z,103929.88
2023-02-07T07:43:52.941Z,103929.91
2023-02-07T07:46:21.078Z,103930.06
2023-02-07T07:48:50.551Z,103921.34
2023-02-07T07:51:18.663Z,103917.13
2023-02-07T07:53:46.743Z,103925.31
2023-02-07T07:56:14.834Z,103930.03
2023-02-07T07:58:42.917Z,103919.81
2023-02-07T08:01:11.103Z,103920.03
2023-02-07T08:03:39.291Z,103915.97
2023-02-07T08:06:09.439Z,103925.09
2023-02-07T08:08:37.549Z,103927.16
2023-02-07T08:11:09.925Z,103924.81
2023-02-07T08:13:38.756Z,103931.28
2023-02-07T08:16:09.014Z,103924.53
2023-02-07T08:18:37.136Z,103927.44
2023-02-07T08:21:05.519Z,103922.38
2023-02-07T08:23:35.638Z,103920.81
2023-02-07T08:26:04.192Z,103927.34
2023-02-07T08:28:32.706Z,103923.06
2023-02-07T08:31:01.244Z,103918.84
2023-02-07T08:33:30.343Z,103911.09
2023-02-07T08:35:59.226Z,103901.72
2023-02-07T08:38:27.432Z,103904.75
2023-02-07T08:40:56.898Z,103903.31
2023-02-07T08:43:25.122Z,103903.69
2023-02-07T08:45:53.300Z,103897.72
2023-02-07T08:48:22.516Z,103905.06
2023-02-07T08:50:50.708Z,103887.69
2023-02-07T08:53:18.914Z,103888.97
2023-02-07T08:55:47.652Z,103878.72
2023-02-07T08:58:17.090Z,103871.09
2023-02-07T09:00:45.335Z,103874.03
2023-02-07T09:03:14.318Z,103876.09
2023-02-07T09:05:42.645Z,103886.16
2023-02-07T09:08:10.920Z,103877.56
2023-02-07T09:10:39.453Z,103881.34
2023-02-07T09:13:07.865Z,103880.66
2023-02-07T09:15:37.341Z,103876.56
2023-02-07T09:18:05.799Z,103874.25
2023-02-07T09:20:33.891Z,103872.88
2023-02-07T09:23:19.499Z,103866.19
2023-02-07T09:25:48.281Z,103874.59
2023-02-07T09:28:16.906Z,103870.56
2023-02-07T09:30:48.813Z,103871.84
2023-02-07T09:33:17.650Z,103877.63
2023-02-07T09:35:47.517Z,103876.28
2023-02-07T09:38:17.340Z,103878.38
2023-02-07T09:40:46.223Z,103879.44
2023-02-07T09:43:21.520Z,103886.72
2023-02-07T09:45:57.195Z,103886.03
2023-02-07T09:48:27.550Z,103888.00
2023-02-07T09:51:00.311Z,103875.75
2023-02-07T09:53:33.360Z,103875.88
2023-02-07T09:56:02.729Z,103883.97
2023-02-07T09:58:36.224Z,103886.78
2023-02-07T10:01:09.484Z,103877.09
2023-02-07T10:03:44.934Z,103886.16
2023-02-07T10:06:19.920Z,103892.56
2023-02-07T10:08:50.950Z,103898.09
2023-02-07T10:11:23.840Z,103906.31
2023-02-07T10:14:07.282Z,103899.34
2023-02-07T10:16:51.421Z,103902.09
2023-02-07T10:19:30.570Z,103897.72
2023-02-07T10:22:04.505Z,103903.19
2023-02-07T10:24:51.608Z,103898.78
2023-02-07T10:27:25.214Z,103892.56
2023-02-07T10:29:57.813Z,103907.81
2023-02-07T10:32:29.305Z,103901.72
2023-02-07T10:35:02.128Z,103901.00
2023-02-07T10:37:33.186Z,103901.00
2023-02-07T10:40:04.385Z,103895.75
2023-02-07T10:42:34.779Z,103906.56
2023-02-07T10:45:03.211Z,103903.94
2023-02-07T10:47:34.671Z,103891.47
2023-02-07T10:50:04.531Z,103879.97
2023-02-07T10:52:37.281Z,103879.16
2023-02-07T10:55:08.616Z,103875.72
2023-02-07T10:57:36.889Z,103869.50
2023-02-07T11:00:18.513Z,103862.44
2023-02-07T11:02:52.048Z,103859.78
2023-02-07T11:05:34.459Z,103867.78
2023-02-07T11:08:04.902Z,103863.34
2023-02-07T11:10:37.027Z,103866.09
2023-02-07T11:13:07.136Z,103858.16
2023-02-07T11:15:40.853Z,103858.31
2023-02-07T11:18:27.675Z,103868.19
2023-02-07T11:20:56.403Z,103868.28
2023-02-07T11:23:25.161Z,103859.41
2023-02-07T11:25:55.603Z,103857.69
2023-02-07T11:28:26.556Z,103862.16
2023-02-07T11:30:58.154Z,103851.44
2023-02-07T11:33:29.932Z,103854.13
2023-02-07T11:36:07.777Z,103856.81
2023-02-07T11:38:40.397Z,103848.75
2023-02-07T11:41:18.721Z,103856.81
2023-02-07T11:43:55.750Z,103863.97
2023-02-07T11:46:25.661Z,103852.31
2023-02-07T11:48:58.003Z,103846.06
2023-02-07T11:51:26.581Z,103847.84
2023-02-07T11:53:57.927Z,103852.34
2023-02-07T11:56:27.960Z,103845.19
2023-02-07T11:58:58.556Z,103860.41
2023-02-07T12:01:29.883Z,103869.31
2023-02-07T12:04:02.090Z,103852.34
2023-02-07T12:06:36.116Z,103849.66
2023-02-07T12:09:06.609Z,103856.81
2023-02-07T12:11:39.089Z,103849.69
2023-02-07T12:14:14.550Z,103847.88
2023-02-07T12:16:45.672Z,103846.09
2023-02-07T12:19:19.741Z,103838.91
2023-02-07T12:21:54.578Z,103844.28
2023-02-07T12:24:25.633Z,103842.47
2023-02-07T12:26:57.006Z,103850.56
2023-02-07T12:29:32.572Z,103847.84
2023-02-07T12:32:06.033Z,103845.19
2023-02-07T12:34:39.697Z,103841.59
2023-02-07T12:37:18.970Z,103841.59
2023-02-07T12:39:53.296Z,103838.88
2023-02-07T12:42:30.818Z,103834.38
2023-02-07T12:45:00.775Z,103832.59
2023-02-07T12:47:39.705Z,103832.56
2023-02-07T12:50:17.030Z,103832.50
2023-02-07T12:52:55.214Z,103832.44
2023-02-07T12:55:34.587Z,103835.06
2023-02-07T12:58:17.526Z,103826.91
2023-02-07T13:00:53.927Z,103836.69
2023-02-07T13:03:30.317Z,103845.47
2023-02-07T13:06:05.899Z,103834.63
2023-02-07T13:08:43.856Z,103839.06
2023-02-07T13:11:22.457Z,103838.97
2023-02-07T13:13:58.398Z,103838.84
2023-02-07T13:16:35.079Z,103837.78
2023-02-07T13:19:11.160Z,103837.56
2023-02-07T13:21:45.222Z,103823.06
2023-02-07T13:24:16.244Z,103824.66
2023-02-07T13:26:49.420Z,103828.91
2023-02-07T13:29:17.941Z,103829.72
2023-02-07T13:31:48.284Z,103826.09
2023-02-07T13:34:19.214Z,103823.38
2023-02-07T13:36:50.221Z,103809.59
2023-02-07T13:39:37.184Z,103814.50
2023-02-07T13:42:13.431Z,103801.56
2023-02-07T13:44:48.579Z,103796.84
2023-02-07T13:47:35.168Z,103798.44
2023-02-07T13:50:08.009Z,103797.31
2023-02-07T13:52:44.039Z,103797.09
2023-02-07T13:55:23.525Z,103800.69
2023-02-07T13:58:11.291Z,103792.50
2023-02-07T14:01:09.963Z,103804.75
2023-02-07T14:03:38.248Z,103793.69
2023-02-07T14:06:23.649Z,103798.19
2023-02-07T14:09:02.568Z,103795.41
2023-02-07T14:11:36.741Z,103794.69
2023-02-07T14:14:07.514Z,103798.78
2023-02-07T14:16:49.511Z,103794.81
2023-02-07T14:19:38.551Z,103787.13
2023-02-07T14:22:17.291Z,103783.66
2023-02-07T14:25:19.352Z,103785.25
2023-02-07T14:28:10.012Z,103788.97
2023-02-07T14:30:39.218Z,103784.88
2023-02-07T14:33:13.688Z,103783.66
2023-02-07T14:36:04.134Z,103791.38
2023-02-07T14:38:36.499Z,103785.63
2023-02-07T14:41:11.358Z,103790.44
2023-02-07T14:44:07.093Z,103785.38
2023-02-07T14:46:38.368Z,103791.00
2023-02-07T14:49:08.263Z,103787.56
2023-02-07T14:51:45.358Z,103789.53
2023-02-07T14:54:20.055Z,103792.34
2023-02-07T14:56:54.059Z,103801.34
2023-02-07T14:59:29.708Z,103790.66
2023-02-07T15:01:57.928Z,103793.31
2023-02-07T15:04:25.997Z,103795.97
2023-02-07T15:06:54.434Z,103810.25
2023-02-07T15:09:26.452Z,103804.81
2023-02-07T15:12:13.008Z,103803.81
2023-02-07T15:14:53.040Z,103796.50
2023-02-07T15:17:22.438Z,103796.44
2023-02-07T15:19:51.085Z,103793.63
2023-02-07T15:22:26.740Z,103804.22
2023-02-07T15:24:57.327Z,103800.53
2023-02-07T15:27:29.027Z,103809.31
2023-02-07T15:29:58.645Z,103807.44
2023-02-07T15:32:30.180Z,103797.53
2023-02-07T15:34:58.424Z,103799.22
2023-02-07T15:37:27.760Z,103792.03
2023-02-07T15:39:57.706Z,103800.88
2023-02-07T15:42:27.484Z,103804.38
2023-02-07T15:44:57.484Z,103802.50
2023-02-07T15:47:39.440Z,103797.97
2023-02-07T15:50:20.999Z,103797.00
2023-02-07T15:52:52.467Z,103787.13
2023-02-07T15:55:26.092Z,103787.94
2023-02-07T15:57:56.761Z,103784.34
2023-02-07T16:00:27.597Z,103794.91
2023-02-07T16:02:59.167Z,103798.44
2023-02-07T16:05:29.737Z,103781.47
2023-02-07T16:07:58.429Z,103775.16
2023-02-07T16:10:35.524Z,103793.78
2023-02-07T16:13:12.414Z,103795.47
2023-02-07T16:15:52.792Z,103801.59
2023-02-07T16:18:36.880Z,103797.03
2023-02-07T16:21:06.027Z,103796.97
2023-02-07T16:23:35.323Z,103801.34
2023-02-07T16:26:04.396Z,103804.81
2023-02-07T16:28:34.314Z,103790.44
2023-02-07T16:31:03.005Z,103797.47
2023-02-07T16:33:31.123Z,103808.88
2023-02-07T16:35:59.189Z,103812.38
2023-02-07T16:38:27.327Z,103804.28
2023-02-07T16:40:55.534Z,103807.78
2023-02-07T16:43:37.646Z,103809.53
2023-02-07T16:46:06.195Z,103811.22
2023-02-07T16:48:34.325Z,103796.94
2023-02-07T16:51:02.475Z,103803.09
2023-02-07T16:53:30.587Z,103804.75
2023-02-07T16:55:59.376Z,103794.88
2023-02-07T16:58:29.492Z,103795.66
2023-02-07T17:00:59.325Z,103795.56
2023-02-07T17:03:27.752Z,103796.38
2023-02-07T17:05:55.868Z,103788.28
2023-02-07T17:08:27.151Z,103796.19
2023-02-07T17:10:59.398Z,103794.28
2023-02-07T17:13:27.630Z,103794.16
2023-02-07T17:15:57.399Z,103795.81
2023-02-07T17:18:27.212Z,103792.13
2023-02-07T17:20:56.767Z,103799.03
2023-02-07T17:23:25.302Z,103791.78
2023-02-07T17:25:53.388Z,103772.19
2023-02-07T17:28:23.005Z,103784.53
2023-02-07T17:30:51.545Z,103787.19
2023-02-07T17:33:19.676Z,103792.50
2023-02-07T17:35:49.295Z,103794.28
2023-02-07T17:38:17.399Z,103789.75
2023-02-07T17:40:45.566Z,103786.16
2023-02-07T17:43:13.646Z,103782.53
2023-02-07T17:45:41.785Z,103783.38
2023-02-07T17:48:12.025Z,103783.28
2023-02-07T17:50:42.111Z,103782.38
2023-02-07T17:53:12.026Z,103794.72
2023-02-07T17:55:40.211Z,103799.94
2023-02-07T17:58:08.472Z,103797.13
2023-02-07T18:00:39.120Z,103796.09
2023-02-07T18:03:08.457Z,103795.94
2023-02-07T18:05:39.166Z,103795.88
2023-02-07T18:08:07.516Z,103790.47
2023-02-07T18:10:37.581Z,103791.38
2023-02-07T18:13:05.999Z,103792.28
2023-02-07T18:15:34.554Z,103788.75
2023-02-07T18:18:02.768Z,103793.13
2023-02-07T18:20:34.840Z,103799.31
2023-02-07T18:23:03.193Z,103805.47
2023-02-07T18:25:31.846Z,103801.91
2023-02-07T18:28:01.560Z,103802.75
2023-02-07T18:30:30.297Z,103815.13
2023-02-07T18:32:59.362Z,103809.72
2023-02-07T18:35:27.452Z,103813.25
2023-02-07T18:37:55.574Z,103811.50
2023-02-07T18:40:23.668Z,103808.84
2023-02-07T18:42:51.876Z,103803.50
2023-02-07T18:45:21.346Z,103811.47
2023-02-07T18:47:49.536Z,103808.81
2023-02-07T18:50:19.609Z,103808.72
2023-02-07T18:52:51.574Z,103815.72
2023-02-07T18:55:19.883Z,103824.56
2023-02-07T18:57:48.010Z,103821.81
2023-02-07T19:00:16.589Z,103820.88
2023-02-07T19:02:47.716Z,103819.88
2023-02-07T19:05:15.957Z,103816.28
2023-02-07T19:07:44.091Z,103816.19
2023-02-07T19:10:12.547Z,103817.91
2023-02-07T19:12:40.676Z,103824.91
2023-02-07T19:15:09.730Z,103824.91
2023-02-07T19:17:37.830Z,103826.59
2023-02-07T19:20:08.316Z,103830.94
2023-02-07T19:22:37.509Z,103835.28
2023-02-07T19:25:06.390Z,103828.97
2023-02-07T19:27:34.488Z,103826.25
2023-02-07T19:30:02.598Z,103827.97
2023-02-07T19:32:31.440Z,103823.50
2023-02-07T19:34:59.600Z,103818.97
2023-02-07T19:37:29.087Z,103824.28
2023-02-07T19:39:57.301Z,103826.03
2023-02-07T19:42:25.755Z,103829.56
2023-02-07T19:44:53.890Z,103828.66
2023-02-07T19:47:22.024Z,103832.09
2023-02-07T19:49:51.921Z,103840.03
2023-02-07T19:52:20.156Z,103825.81
2023-02-07T19:54:49.995Z,103823.13
2023-02-07T19:57:18.095Z,103806.22
2023-02-07T19:59:48.334Z,103816.81
2023-02-07T20:02:16.468Z,103819.47
2023-02-07T20:04:44.615Z,103818.56
2023-02-07T20:07:12.703Z,103816.78
2023-02-07T20:09:40.857Z,103818.53
2023-02-07T20:12:10.415Z,103822.09
2023-02-07T20:14:38.724Z,103817.63
2023-02-07T20:17:09.350Z,103827.31
2023-02-07T20:19:38.134Z,103828.19
2023-02-07T20:22:06.250Z,103831.69
2023-02-07T20:24:34.352Z,103835.19
2023-02-07T20:27:02.448Z,103825.47
2023-02-07T20:29:32.632Z,103822.81
2023-02-07T20:32:00.812Z,103826.31
2023-02-07T20:34:28.982Z,103827.16
2023-02-07T20:36:57.305Z,103835.09
2023-02-07T20:39:26.533Z,103826.22
2023-02-07T20:41:54.637Z,103823.56
2023-02-07T20:44:26.510Z,103819.13
2023-02-07T20:46:57.697Z,103817.34
2023-02-07T20:49:28.435Z,103813.75
2023-02-07T20:51:57.773Z,103821.66
2023-02-07T20:54:27.653Z,103815.41
2023-02-07T20:56:56.478Z,103827.72
2023-02-07T20:59:27.151Z,103821.47
2023-02-07T21:01:57.282Z,103823.13
2023-02-07T21:04:26.034Z,103830.97
2023-02-07T21:06:54.399Z,103829.06
2023-02-07T21:09:26.623Z,103830.75
2023-02-07T21:11:56.012Z,103832.38
2023-02-07T21:14:25.955Z,103828.69
2023-02-07T21:16:54.599Z,103828.59
2023-02-07T21:19:24.744Z,103828.53
2023-02-07T21:21:55.030Z,103829.31
2023-02-07T21:24:23.332Z,103822.09
2023-02-07T21:26:52.978Z,103827.31
2023-02-07T21:29:21.845Z,103826.31
2023-02-07T21:31:50.868Z,103831.47
2023-02-07T21:34:21.176Z,103829.63
2023-02-07T21:36:51.102Z,103829.56
2023-02-07T21:39:19.656Z,103839.19
2023-02-07T21:41:48.587Z,103816.06
2023-02-07T21:44:17.367Z,103826.56
2023-02-07T21:46:48.312Z,103830.00
2023-02-07T21:49:17.648Z,103828.97
2023-02-07T21:51:47.034Z,103828.03
2023-02-07T21:54:16.642Z,103822.66
2023-02-07T21:56:45.829Z,103819.97
2023-02-07T21:59:15.289Z,103828.66
2023-02-07T22:01:44.216Z,103825.84
2023-02-07T22:04:14.230Z,103818.72
2023-02-07T22:06:43.858Z,103823.06
2023-02-07T22:09:12.979Z,103822.13
2023-02-07T22:11:42.602Z,103817.69
2023-02-07T22:14:12.282Z,103817.56
2023-02-07T22:16:40.684Z,103821.03
2023-02-07T22:19:09.718Z,103824.53
2023-02-07T22:21:38.467Z,103820.94
2023-02-07T22:24:07.517Z,103815.59
2023-02-07T22:26:35.959Z,103816.44
2023-02-07T22:29:06.844Z,103819.00
2023-02-07T22:31:37.353Z,103813.59
2023-02-07T22:34:08.452Z,103812.69
2023-02-07T22:36:38.527Z,103818.84
2023-02-07T22:39:07.970Z,103824.94
2023-02-07T22:41:36.791Z,103820.44
2023-02-07T22:44:06.634Z,103819.53
2023-02-07T22:46:34.805Z,103825.56
2023-02-07T22:49:02.989Z,103829.91
2023-02-07T22:51:34.064Z,103830.72
2023-02-07T22:54:03.835Z,103828.88
2023-02-07T22:56:32.470Z,103839.44
2023-02-07T22:59:00.591Z,103828.78
2023-02-07T23:01:32.508Z,103833.19
2023-02-07T23:04:02.280Z,103841.94
2023-02-07T23:06:32.417Z,103840.91
2023-02-07T23:09:01.098Z,103832.91
2023-02-07T23:11:29.275Z,103834.63
2023-02-07T23:13:57.539Z,103831.03
2023-02-07T23:16:27.780Z,103839.81
2023-02-07T23:18:59.229Z,103838.00
2023-02-07T23:21:28.049Z,103842.34
2023-02-07T23:23:57.637Z,103847.63
2023-02-07T23:26:26.393Z,103847.63
2023-02-07T23:28:54.521Z,103849.34
2023-02-07T23:31:25.050Z,103850.19
2023-02-07T23:33:53.819Z,103848.38
2023-02-07T23:36:23.764Z,103851.88
2023-02-07T23:38:52.038Z,103835.91
2023-02-07T23:41:20.163Z,103832.31
2023-02-07T23:43:48.443Z,103836.56
2023-02-07T23:46:17.375Z,103838.28
2023-02-07T23:48:45.688Z,103837.31
2023-02-07T23:51:14.299Z,103839.06
2023-02-07T23:53:44.378Z,103839.06
2023-02-07T23:56:14.995Z,103848.81
2023-02-07T23:58:44.889Z,103841.72
